Time;durP1;ratioP1;P1;durP2;ratioP2;P2;SDS_P1;SDS_P2;PMS_P1;PMS_P2;Temp;Humidity;BMP_temperature;BMP_pressure;BME280_temperature;BME280_humidity;BME280_pressure;Samples;Min_cycle;Max_cycle;Signal;HPM_P1;HPM_P2
2023/06/04 00:00:22;;;;;;;6.75;1.10;;;17.80;99.90;;;;;;5072792;28;20481;-58
2023/06/04 00:02:49;;;;;;;6.72;1.77;;;17.90;99.90;;;;;;5082804;28;20070;-59
2023/06/04 00:05:16;;;;;;;8.80;1.67;;;17.90;99.90;;;;;;5086960;28;20044;-59
2023/06/04 00:07:44;;;;;;;6.53;1.25;;;17.90;99.90;;;;;;5055800;28;20024;-59
2023/06/04 00:10:12;;;;;;;8.55;1.88;;;17.90;99.90;;;;;;5083480;28;20028;-59
2023/06/04 00:12:39;;;;;;;9.48;1.75;;;17.90;99.90;;;;;;5079726;28;20017;-60
2023/06/04 00:15:07;;;;;;;7.00;1.20;;;17.90;99.90;;;;;;5094489;28;20472;-59
2023/06/04 00:17:35;;;;;;;5.05;1.23;;;17.90;99.90;;;;;;5086678;28;20130;-59
2023/06/04 00:20:03;;;;;;;5.85;1.40;;;17.90;99.90;;;;;;5083105;28;20036;-59
2023/06/04 00:22:30;;;;;;;6.97;1.23;;;17.70;99.90;;;;;;5084340;28;20188;-60
2023/06/04 00:24:58;;;;;;;5.00;1.20;;;17.60;99.90;;;;;;5072792;28;20523;-59
2023/06/04 00:27:25;;;;;;;6.10;1.17;;;17.70;99.90;;;;;;5068989;28;20028;-59
2023/06/04 00:29:52;;;;;;;6.13;1.15;;;17.60;99.90;;;;;;5075427;28;20036;-59
2023/06/04 00:32:20;;;;;;;7.22;1.80;;;17.50;99.90;;;;;;5074558;28;20100;-59
2023/06/04 00:34:57;;;;;;;7.95;1.52;;;17.30;99.90;;;;;;5081116;28;20397;-58
2023/06/04 00:37:30;;;;;;;10.63;1.98;;;17.30;99.90;;;;;;5082654;28;20032;-50
2023/06/04 00:39:57;;;;;;;6.43;1.65;;;17.30;99.90;;;;;;5076484;28;20101;-50
2023/06/04 00:42:25;;;;;;;10.13;2.25;;;17.30;99.90;;;;;;5075882;28;20029;-57
2023/06/04 00:44:52;;;;;;;11.30;1.50;;;17.30;99.90;;;;;;5081593;28;20036;-57
2023/06/04 00:47:21;;;;;;;25.98;2.30;;;17.30;99.90;;;;;;5085191;28;20469;-54
2023/06/04 00:49:49;;;;;;;10.55;1.95;;;17.30;99.90;;;;;;5080187;28;20028;-55
2023/06/04 00:52:17;;;;;;;7.88;1.85;;;17.20;99.90;;;;;;5080106;28;20017;-57
2023/06/04 00:54:44;;;;;;;12.05;2.08;;;17.20;99.90;;;;;;5078495;28;20032;-57
2023/06/04 00:57:12;;;;;;;10.05;2.03;;;17.10;99.90;;;;;;5078600;28;20020;-57
2023/06/04 00:59:41;;;;;;;11.50;2.58;;;17.10;99.90;;;;;;5081554;28;20020;-58
2023/06/04 01:02:22;;;;;;;12.35;2.63;;;17.10;99.90;;;;;;5079355;28;20020;-57
2023/06/04 01:04:53;;;;;;;13.27;2.45;;;17.20;99.90;;;;;;5060858;28;20089;-56
2023/06/04 01:07:21;;;;;;;5.38;1.00;;;17.10;99.90;;;;;;5076390;28;20024;-57
2023/06/04 01:09:50;;;;;;;7.70;1.75;;;17.00;99.90;;;;;;5082645;28;20097;-51
2023/06/04 01:12:18;;;;;;;7.43;1.52;;;17.00;99.90;;;;;;5076166;28;20103;-55
2023/06/04 01:14:45;;;;;;;11.27;1.42;;;16.90;99.90;;;;;;5085163;28;20066;-57
2023/06/04 01:17:19;;;;;;;9.82;1.80;;;16.90;99.90;;;;;;5091845;28;20044;-49
2023/06/04 01:20:04;;;;;;;5.78;1.15;;;16.80;99.90;;;;;;5077500;28;20024;-57
2023/06/04 01:23:02;;;;;;;6.40;1.23;;;16.90;99.90;;;;;;5074622;28;20524;-58
2023/06/04 01:25:38;;;;;;;10.38;1.10;;;16.90;99.90;;;;;;5074997;28;20404;-58
2023/06/04 01:28:10;;;;;;;13.07;1.90;;;16.90;99.90;;;;;;5075080;28;20377;-51
2023/06/04 01:30:43;;;;;;;8.75;1.58;;;16.80;99.90;;;;;;5081554;28;20032;-58
2023/06/04 01:33:11;;;;;;;11.15;1.63;;;17.00;99.90;;;;;;5061700;28;20465;-57
2023/06/04 01:35:39;;;;;;;7.22;1.83;;;17.10;99.90;;;;;;5085033;28;20067;-58
2023/06/04 01:38:07;;;;;;;12.18;2.33;;;17.30;99.90;;;;;;5083081;28;20055;-57
2023/06/04 01:40:35;;;;;;;8.02;1.90;;;17.50;99.90;;;;;;5079726;28;20452;-57
2023/06/04 01:43:02;;;;;;;6.85;1.10;;;17.50;99.90;;;;;;5071670;28;20024;-57
2023/06/04 01:45:30;;;;;;;13.88;1.23;;;17.60;99.90;;;;;;5088410;28;20031;-57
2023/06/04 01:47:58;;;;;;;6.93;1.58;;;17.70;99.90;;;;;;5071067;28;20035;-58
2023/06/04 01:50:26;;;;;;;12.68;1.73;;;17.70;99.90;;;;;;5085169;28;20031;-58
2023/06/04 01:52:54;;;;;;;4.78;1.15;;;17.80;99.90;;;;;;5078132;28;20040;-57
2023/06/04 01:55:22;;;;;;;7.53;1.20;;;17.90;99.90;;;;;;5074221;28;20024;-58
2023/06/04 01:57:50;;;;;;;8.70;1.88;;;18.10;99.90;;;;;;5083718;28;20028;-61
2023/06/04 02:00:18;;;;;;;5.72;1.20;;;18.30;99.90;;;;;;5084656;28;20039;-58
2023/06/04 02:02:48;;;;;;;10.32;2.03;;;18.40;99.90;;;;;;5107113;28;20114;-58
2023/06/04 02:05:16;;;;;;;7.35;1.77;;;18.40;99.90;;;;;;5079247;28;20036;-57
2023/06/04 02:07:45;;;;;;;4.80;1.40;;;18.50;99.90;;;;;;5077883;28;20043;-56
2023/06/04 02:10:16;;;;;;;5.43;1.55;;;18.40;99.90;;;;;;5077054;28;20039;-54
2023/06/04 02:12:57;;;;;;;7.53;1.55;;;18.30;99.90;;;;;;5074284;28;20503;-56
2023/06/04 02:15:26;;;;;;;9.73;1.60;;;18.60;99.90;;;;;;5075814;28;20060;-54
2023/06/04 02:18:15;;;;;;;6.75;1.13;;;18.80;99.90;;;;;;5080476;28;20021;-55
2023/06/04 02:20:44;;;;;;;4.25;1.17;;;18.70;99.90;;;;;;5070754;28;20081;-56
2023/06/04 02:23:13;;;;;;;6.32;1.13;;;18.70;99.90;;;;;;5065738;28;20507;-54
2023/06/04 02:25:41;;;;;;;3.85;0.98;;;18.60;99.90;;;;;;5074937;28;20353;-55
2023/06/04 02:28:08;;;;;;;5.75;1.10;;;18.80;99.90;;;;;;5077443;28;20020;-56
2023/06/04 02:30:35;;;;;;;5.03;1.40;;;18.90;99.90;;;;;;5075714;28;20047;-55
2023/06/04 02:33:03;;;;;;;8.77;1.48;;;18.80;99.90;;;;;;5083838;28;20128;-53
2023/06/04 02:35:31;;;;;;;6.93;1.20;;;18.80;99.90;;;;;;5052509;28;20189;-54
2023/06/04 02:37:59;;;;;;;4.45;1.00;;;18.80;99.90;;;;;;5077115;28;20492;-55
2023/06/04 02:40:27;;;;;;;10.07;1.23;;;18.90;99.90;;;;;;5078970;28;20024;-52
2023/06/04 02:42:55;;;;;;;9.15;2.00;;;19.00;99.90;;;;;;5073968;28;20520;-56
2023/06/04 02:45:24;;;;;;;3.13;0.90;;;19.00;99.90;;;;;;5077717;28;20472;-54
2023/06/04 02:47:51;;;;;;;4.72;1.13;;;19.10;99.90;;;;;;5080605;28;20028;-56
2023/06/04 02:50:19;;;;;;;6.70;1.10;;;19.10;99.90;;;;;;5076297;28;20103;-54
2023/06/04 02:52:47;;;;;;;5.00;0.98;;;19.00;99.90;;;;;;5079804;28;20036;-54
2023/06/04 02:55:14;;;;;;;7.35;1.10;;;19.00;99.90;;;;;;5081039;28;20032;-54
2023/06/04 02:57:43;;;;;;;7.72;1.70;;;18.80;99.90;;;;;;5078189;28;20017;-65
2023/06/04 03:00:12;;;;;;;9.00;1.45;;;18.80;99.90;;;;;;5076301;28;20067;-55
2023/06/04 03:02:42;;;;;;;9.40;1.50;;;18.80;99.90;;;;;;5076068;28;20034;-56
2023/06/04 03:05:12;;;;;;;7.30;1.23;;;18.90;99.90;;;;;;5076777;28;20430;-52
2023/06/04 03:07:43;;;;;;;7.07;1.08;;;19.20;99.90;;;;;;5076936;28;20070;-54
2023/06/04 03:10:12;;;;;;;9.00;1.52;;;19.30;99.90;;;;;;5077747;28;20376;-51
2023/06/04 03:12:40;;;;;;;6.35;1.27;;;19.20;99.90;;;;;;5077008;28;20047;-55
2023/06/04 03:15:08;;;;;;;14.70;3.35;;;19.30;99.90;;;;;;5078145;28;20024;-54
2023/06/04 03:17:35;;;;;;;3.90;1.50;;;19.30;99.90;;;;;;5080558;28;20020;-56
2023/06/04 03:20:07;;;;;;;5.47;1.23;;;19.30;99.90;;;;;;5069564;28;20060;-54
2023/06/04 03:22:35;;;;;;;4.47;1.00;;;19.10;99.90;;;;;;5070253;28;20028;-56
2023/06/04 03:25:03;;;;;;;3.03;1.27;;;18.70;99.90;;;;;;5071983;28;20036;-49
2023/06/04 03:27:33;;;;;;;10.50;2.40;;;18.60;99.90;;;;;;5088881;28;20074;-55
2023/06/04 03:30:00;;;;;;;6.63;1.70;;;18.60;99.90;;;;;;5079081;28;20031;-53
2023/06/04 03:32:28;;;;;;;8.05;1.85;;;18.40;99.90;;;;;;5093004;28;20035;-50
2023/06/04 03:34:55;;;;;;;9.57;1.40;;;18.40;99.90;;;;;;5087723;28;20361;-54
2023/06/04 03:37:23;;;;;;;6.80;1.00;;;18.30;99.90;;;;;;5084121;28;20054;-49
2023/06/04 03:39:50;;;;;;;6.70;1.23;;;18.20;99.90;;;;;;5075661;28;20445;-51
2023/06/04 03:42:18;;;;;;;7.15;1.48;;;18.20;99.90;;;;;;5070138;28;20026;-55
2023/06/04 03:44:46;;;;;;;4.03;0.70;;;18.20;99.90;;;;;;5073633;28;20036;-59
2023/06/04 03:47:13;;;;;;;5.38;1.10;;;18.30;99.90;;;;;;5081304;28;20012;-60
2023/06/04 03:49:41;;;;;;;5.35;2.08;;;18.30;99.90;;;;;;5071675;28;20028;-61
2023/06/04 03:52:09;;;;;;;8.35;1.50;;;18.10;99.90;;;;;;5070665;28;20055;-60
2023/06/04 03:54:36;;;;;;;9.98;1.27;;;17.90;99.90;;;;;;5056339;28;20094;-59
2023/06/04 03:57:04;;;;;;;9.25;1.20;;;17.70;99.90;;;;;;5046652;28;20473;-60
2023/06/04 03:59:31;;;;;;;4.53;1.52;;;17.30;99.90;;;;;;5040439;28;21443;-59
2023/06/04 04:01:59;;;;;;;10.82;2.22;;;16.90;99.90;;;;;;5040279;28;20031;-58
2023/06/04 04:04:26;;;;;;;4.50;1.10;;;16.70;99.90;;;;;;5045138;28;20033;-60
2023/06/04 04:06:54;;;;;;;6.50;1.27;;;16.60;99.90;;;;;;5043620;28;20025;-60
2023/06/04 04:09:21;;;;;;;4.95;1.23;;;16.50;99.90;;;;;;5042008;28;20102;-60
2023/06/04 04:11:49;;;;;;;6.68;1.35;;;16.40;99.90;;;;;;5041780;28;20385;-59
2023/06/04 04:14:16;;;;;;;5.43;1.25;;;16.50;99.90;;;;;;5038272;28;20032;-61
2023/06/04 04:16:44;;;;;;;9.40;1.00;;;16.60;99.90;;;;;;5042864;28;20046;-60
2023/06/04 04:19:12;;;;;;;7.93;1.98;;;16.70;99.90;;;;;;5055813;28;20071;-59
2023/06/04 04:21:39;;;;;;;5.43;1.08;;;16.80;99.90;;;;;;5046546;28;20025;-59
2023/06/04 04:24:07;;;;;;;2.30;0.80;;;16.90;99.90;;;;;;5048424;28;20037;-59
2023/06/04 04:26:34;;;;;;;5.00;1.00;;;17.00;99.90;;;;;;5047993;28;20025;-60
2023/06/04 04:29:02;;;;;;;6.35;1.38;;;17.10;99.90;;;;;;5049052;28;20111;-61
2023/06/04 04:31:30;;;;;;;4.72;0.90;;;17.20;99.90;;;;;;5047282;28;20055;-60
2023/06/04 04:33:57;;;;;;;5.57;1.00;;;17.30;99.90;;;;;;5049148;28;20029;-61
2023/06/04 04:36:25;;;;;;;5.28;1.10;;;17.40;99.90;;;;;;5046923;28;20033;-60
2023/06/04 04:38:58;;;;;;;8.25;1.48;;;17.40;99.90;;;;;;5060358;28;20029;-60
2023/06/04 04:41:25;;;;;;;5.95;1.30;;;17.40;99.90;;;;;;5048228;28;20441;-60
2023/06/04 04:43:54;;;;;;;4.65;1.13;;;17.40;99.90;;;;;;5044620;28;20120;-60
2023/06/04 04:46:21;;;;;;;6.50;1.63;;;17.50;99.90;;;;;;5045990;28;20032;-60
2023/06/04 04:48:49;;;;;;;6.20;1.38;;;17.40;99.90;;;;;;5044605;28;20045;-60
2023/06/04 04:51:16;;;;;;;3.67;0.90;;;17.40;99.90;;;;;;5041566;28;20166;-60
2023/06/04 04:53:44;;;;;;;5.65;0.90;;;17.40;99.90;;;;;;5062033;28;20064;-61
2023/06/04 04:56:11;;;;;;;5.72;1.02;;;17.40;99.90;;;;;;5080437;28;20035;-60
2023/06/04 04:58:39;;;;;;;9.15;1.13;;;17.40;99.90;;;;;;5074595;28;20456;-60
2023/06/04 05:01:06;;;;;;;5.22;0.93;;;17.50;99.90;;;;;;5061615;28;20035;-60
2023/06/04 05:03:34;;;;;;;4.60;1.15;;;17.50;99.90;;;;;;5083994;28;20097;-60
2023/06/04 05:06:01;;;;;;;6.75;1.27;;;17.50;99.90;;;;;;5073396;28;20561;-60
2023/06/04 05:08:28;;;;;;;5.50;1.00;;;17.50;99.90;;;;;;5084094;28;20032;-60
2023/06/04 05:10:56;;;;;;;7.15;1.23;;;17.60;99.90;;;;;;5084208;28;20107;-60
2023/06/04 05:13:24;;;;;;;9.00;1.42;;;17.70;99.90;;;;;;5067093;28;20081;-60
2023/06/04 05:15:54;;;;;;;6.47;1.30;;;17.70;99.90;;;;;;5066949;28;20085;-60
2023/06/04 05:18:28;;;;;;;6.05;1.10;;;17.70;99.90;;;;;;5077318;28;20031;-61
2023/06/04 05:20:57;;;;;;;3.75;0.73;;;17.70;99.90;;;;;;5067488;28;20032;-60
2023/06/04 05:23:25;;;;;;;8.18;1.02;;;17.70;99.90;;;;;;5079275;28;20038;-62
2023/06/04 05:25:52;;;;;;;15.55;2.90;;;17.50;99.90;;;;;;5081876;28;20039;-59
2023/06/04 05:28:20;;;;;;;5.07;1.00;;;17.40;99.90;;;;;;5071865;28;20028;-60
2023/06/04 05:30:48;;;;;;;7.28;0.90;;;17.40;99.90;;;;;;5074131;28;20032;-59
2023/06/04 05:33:19;;;;;;;9.13;1.10;;;17.30;99.90;;;;;;5072661;28;20318;-60
2023/06/04 05:35:49;;;;;;;6.32;1.77;;;17.30;99.90;;;;;;5074954;28;20031;-59
2023/06/04 05:38:18;;;;;;;6.18;1.05;;;17.20;99.90;;;;;;5071351;28;20484;-60
2023/06/04 05:40:48;;;;;;;6.47;1.10;;;17.20;99.90;;;;;;5082754;28;20025;-59
2023/06/04 05:43:16;;;;;;;8.43;1.15;;;17.10;99.90;;;;;;5085702;28;20036;-59
2023/06/04 05:45:44;;;;;;;9.52;1.77;;;17.10;99.90;;;;;;5069473;28;20040;-60
2023/06/04 05:48:11;;;;;;;4.10;0.98;;;17.10;99.90;;;;;;5068760;28;20676;-59
2023/06/04 05:50:38;;;;;;;6.60;1.02;;;17.00;99.90;;;;;;5080096;28;20031;-61
2023/06/04 05:53:06;;;;;;;4.45;0.65;;;17.00;99.90;;;;;;5076168;28;20055;-61
2023/06/04 05:55:34;;;;;;;3.58;0.80;;;17.00;99.90;;;;;;5075710;28;20032;-58
2023/06/04 05:58:02;;;;;;;8.32;1.20;;;16.90;99.90;;;;;;5076489;28;20441;-59
2023/06/04 06:00:29;;;;;;;7.90;1.00;;;16.90;99.90;;;;;;5077664;28;20024;-59
2023/06/04 06:02:57;;;;;;;2.95;0.75;;;16.80;99.90;;;;;;5070838;28;20028;-60
2023/06/04 06:05:24;;;;;;;4.82;0.70;;;16.80;99.90;;;;;;5057950;28;21928;-59
2023/06/04 06:07:52;;;;;;;6.47;1.05;;;16.80;99.90;;;;;;5053543;28;20185;-60
2023/06/04 06:10:19;;;;;;;3.53;0.95;;;16.60;99.90;;;;;;5073389;28;20205;-60
2023/06/04 06:12:47;;;;;;;12.93;1.20;;;16.40;99.90;;;;;;5077625;28;20027;-60
2023/06/04 06:15:15;;;;;;;8.25;1.20;;;16.10;99.90;;;;;;5087979;28;20570;-60
2023/06/04 06:17:42;;;;;;;5.63;0.98;;;16.00;99.90;;;;;;5051758;28;20111;-58
2023/06/04 06:20:10;;;;;;;6.90;1.20;;;15.80;99.90;;;;;;5079945;28;20396;-59
2023/06/04 06:22:37;;;;;;;7.55;0.63;;;15.70;99.90;;;;;;5078390;28;20029;-58
2023/06/04 06:25:06;;;;;;;4.78;0.60;;;15.70;99.90;;;;;;5066583;28;20028;-58
2023/06/04 06:27:34;;;;;;;10.93;1.60;;;15.60;99.90;;;;;;5059261;28;20061;-59
2023/06/04 06:30:02;;;;;;;3.97;0.90;;;15.60;99.90;;;;;;5069964;28;20120;-59
2023/06/04 06:32:29;;;;;;;5.00;0.70;;;15.70;99.90;;;;;;5073552;28;20024;-59
2023/06/04 06:34:57;;;;;;;2.35;0.60;;;15.70;99.90;;;;;;5066454;28;20051;-59
2023/06/04 06:37:24;;;;;;;9.95;1.13;;;15.70;99.90;;;;;;5073500;28;20390;-59
2023/06/04 06:39:52;;;;;;;7.25;1.00;;;15.80;99.90;;;;;;5075612;28;20028;-59
2023/06/04 06:42:19;;;;;;;9.55;1.10;;;15.80;99.90;;;;;;5074630;28;20084;-58
2023/06/04 06:44:47;;;;;;;9.38;1.10;;;15.90;99.90;;;;;;5066967;28;20102;-58
2023/06/04 06:47:15;;;;;;;8.75;1.65;;;15.90;99.90;;;;;;5053495;28;20162;-59
2023/06/04 06:49:42;;;;;;;6.53;0.90;;;15.90;99.90;;;;;;5075317;28;20052;-59
2023/06/04 06:52:10;;;;;;;6.50;1.20;;;16.00;99.90;;;;;;5072828;28;20038;-60
2023/06/04 06:54:38;;;;;;;5.40;1.30;;;15.90;99.90;;;;;;5069616;28;20031;-59
2023/06/04 06:57:08;;;;;;;6.00;2.25;;;15.80;99.90;;;;;;5068659;28;20075;-58
2023/06/04 06:59:36;;;;;;;6.45;1.02;;;15.80;99.90;;;;;;5074304;28;20021;-58
2023/06/04 07:02:04;;;;;;;9.55;1.17;;;15.70;99.90;;;;;;5071668;28;20630;-60
2023/06/04 07:04:31;;;;;;;4.50;0.82;;;15.60;99.90;;;;;;5056753;28;20048;-60
2023/06/04 07:06:59;;;;;;;2.83;0.98;;;15.60;99.90;;;;;;5072400;28;20028;-59
2023/06/04 07:09:27;;;;;;;3.53;0.80;;;15.50;99.90;;;;;;5070482;28;20032;-58
2023/06/04 07:11:54;;;;;;;5.50;0.70;;;15.40;99.90;;;;;;5049587;28;20790;-55
2023/06/04 07:14:22;;;;;;;13.57;1.80;;;15.40;99.90;;;;;;5066952;28;20076;-62
2023/06/04 07:16:49;;;;;;;8.15;1.10;;;15.20;99.90;;;;;;5063915;28;20032;-61
2023/06/04 07:19:17;;;;;;;5.32;0.85;;;15.20;99.90;;;;;;5068973;28;20051;-62
2023/06/04 07:21:45;;;;;;;3.28;1.23;;;15.10;99.90;;;;;;5073455;28;20043;-62
2023/06/04 07:24:12;;;;;;;5.63;0.73;;;15.10;99.90;;;;;;5072873;28;20089;-61
2023/06/04 07:26:40;;;;;;;5.38;1.17;;;15.10;99.90;;;;;;5069473;28;20021;-62
2023/06/04 07:29:08;;;;;;;4.57;1.13;;;15.00;99.90;;;;;;5077207;28;20024;-62
2023/06/04 07:31:35;;;;;;;6.57;1.23;;;15.00;99.90;;;;;;5072422;28;20025;-62
2023/06/04 07:34:03;;;;;;;5.00;0.98;;;15.10;99.90;;;;;;5056602;28;20241;-62
2023/06/04 07:36:32;;;;;;;6.40;1.15;;;15.10;99.90;;;;;;5073732;28;20058;-63
2023/06/04 07:39:01;;;;;;;8.27;1.45;;;15.10;99.90;;;;;;5071108;28;20015;-62
2023/06/04 07:41:28;;;;;;;5.47;0.90;;;15.20;99.90;;;;;;5070752;28;20113;-62
2023/06/04 07:43:56;;;;;;;7.97;1.00;;;15.20;99.90;;;;;;5068942;28;20043;-62
2023/06/04 07:46:23;;;;;;;4.63;1.08;;;15.20;99.90;;;;;;5077276;28;20035;-62
2023/06/04 07:48:50;;;;;;;5.65;0.90;;;15.20;99.90;;;;;;5079151;28;20028;-62
2023/06/04 07:51:19;;;;;;;20.30;7.97;;;15.30;99.90;;;;;;5075728;28;21191;-62
2023/06/04 07:53:46;;;;;;;21.88;9.48;;;15.30;99.90;;;;;;5077865;28;20140;-62
2023/06/04 07:56:14;;;;;;;24.20;10.27;;;15.30;99.90;;;;;;5069857;28;20035;-62
2023/06/04 07:58:42;;;;;;;23.20;9.27;;;15.30;99.90;;;;;;5073273;28;20028;-62
2023/06/04 08:01:10;;;;;;;10.88;4.65;;;15.20;99.90;;;;;;5072194;28;20025;-62
2023/06/04 08:03:38;;;;;;;6.40;2.50;;;15.20;99.90;;;;;;5071422;28;20028;-62
2023/06/04 08:06:06;;;;;;;5.20;1.73;;;15.20;99.90;;;;;;5075007;28;20450;-62
2023/06/04 08:08:36;;;;;;;6.20;1.67;;;15.20;99.90;;;;;;5073851;28;20655;-62
2023/06/04 08:11:04;;;;;;;4.32;1.02;;;15.10;99.90;;;;;;5072947;28;20653;-62
2023/06/04 08:13:31;;;;;;;3.38;1.23;;;15.10;99.90;;;;;;5082863;28;20448;-63
2023/06/04 08:15:58;;;;;;;6.95;1.60;;;15.00;99.90;;;;;;5075306;28;20039;-63
2023/06/04 08:18:26;;;;;;;7.15;1.48;;;15.00;99.90;;;;;;5086169;28;20021;-62
2023/06/04 08:20:53;;;;;;;9.15;1.10;;;15.00;99.90;;;;;;5075839;28;20031;-62
2023/06/04 08:23:21;;;;;;;7.07;1.95;;;15.00;99.90;;;;;;5047787;28;20035;-61
2023/06/04 08:25:48;;;;;;;7.18;1.75;;;15.00;99.90;;;;;;5048401;28;20102;-61
2023/06/04 08:28:18;;;;;;;6.18;1.15;;;15.00;99.90;;;;;;5045890;28;20397;-61
2023/06/04 08:30:46;;;;;;;5.43;1.20;;;15.00;99.90;;;;;;5071803;28;20035;-62
2023/06/04 08:33:14;;;;;;;3.42;1.13;;;14.90;99.90;;;;;;5079094;28;20447;-61
2023/06/04 08:35:41;;;;;;;7.93;1.20;;;14.90;99.90;;;;;;5070152;28;20547;-61
2023/06/04 08:38:09;;;;;;;6.15;1.20;;;14.90;99.90;;;;;;5076634;28;20040;-61
2023/06/04 08:40:36;;;;;;;6.40;1.02;;;14.80;99.90;;;;;;5069168;28;20028;-61
2023/06/04 08:43:05;;;;;;;2.60;1.08;;;14.80;99.90;;;;;;5080531;28;20088;-61
2023/06/04 08:45:38;;;;;;;3.63;1.15;;;14.80;99.90;;;;;;5078872;28;20025;-62
2023/06/04 08:48:11;;;;;;;5.80;1.02;;;14.70;99.90;;;;;;5070027;28;20793;-61
2023/06/04 08:50:44;;;;;;;5.30;1.52;;;14.70;99.90;;;;;;5066899;28;20032;-61
2023/06/04 08:53:14;;;;;;;3.85;1.35;;;14.70;99.90;;;;;;5080089;28;20032;-61
2023/06/04 08:55:41;;;;;;;4.75;1.88;;;14.70;99.90;;;;;;5077541;28;20016;-61
2023/06/04 08:58:11;;;;;;;5.15;1.02;;;14.60;99.90;;;;;;5074472;28;20020;-61
2023/06/04 09:00:38;;;;;;;5.93;1.30;;;14.70;99.90;;;;;;5075873;28;20043;-61
2023/06/04 09:03:06;;;;;;;4.93;1.25;;;14.60;99.90;;;;;;5044632;28;20029;-61
2023/06/04 09:05:35;;;;;;;3.80;1.10;;;14.60;99.90;;;;;;5068634;28;20644;-61
2023/06/04 09:08:05;;;;;;;5.32;1.58;;;14.70;99.90;;;;;;5073329;28;21761;-61
2023/06/04 09:10:34;;;;;;;6.78;1.02;;;14.60;99.90;;;;;;5080220;28;20028;-61
2023/06/04 09:13:04;;;;;;;4.85;1.30;;;14.60;99.90;;;;;;5082941;28;20032;-62
2023/06/04 09:15:31;;;;;;;5.07;1.20;;;14.60;99.90;;;;;;5076401;28;20020;-62
2023/06/04 09:17:58;;;;;;;7.72;1.60;;;14.60;99.90;;;;;;5089775;28;20102;-62
2023/06/04 09:20:27;;;;;;;9.95;1.42;;;14.60;99.90;;;;;;5078296;28;20035;-62
2023/06/04 09:22:55;;;;;;;8.63;1.50;;;14.50;99.90;;;;;;5052468;28;20032;-62
2023/06/04 09:25:27;;;;;;;7.82;1.63;;;14.50;99.90;;;;;;5067577;28;20111;-61
2023/06/04 09:27:57;;;;;;;7.30;1.52;;;14.50;99.90;;;;;;5083167;28;20373;-61
2023/06/04 09:30:25;;;;;;;6.38;1.50;;;14.50;99.90;;;;;;5075488;28;20073;-60
2023/06/04 09:32:53;;;;;;;5.78;1.52;;;14.50;99.90;;;;;;5083172;28;20060;-60
2023/06/04 09:35:21;;;;;;;6.88;1.75;;;14.50;99.90;;;;;;5060325;28;20089;-60
2023/06/04 09:37:58;;;;;;;8.48;2.10;;;14.50;99.90;;;;;;5051803;28;20028;-62
2023/06/04 09:40:35;;;;;;;8.38;0.95;;;14.50;99.90;;;;;;5074957;28;20174;-61
2023/06/04 09:43:02;;;;;;;8.68;1.33;;;14.60;99.90;;;;;;5074975;28;20052;-62
2023/06/04 09:45:35;;;;;;;11.30;1.65;;;14.70;99.90;;;;;;5066726;28;20119;-61
2023/06/04 09:48:04;;;;;;;5.38;1.20;;;14.80;99.90;;;;;;5064149;28;20062;-61
2023/06/04 09:50:34;;;;;;;3.95;0.88;;;14.80;99.90;;;;;;5076856;28;20034;-61
2023/06/04 09:53:02;;;;;;;4.75;0.93;;;14.80;99.90;;;;;;5080654;28;20504;-61
2023/06/04 09:55:30;;;;;;;6.85;0.93;;;14.80;99.90;;;;;;5070387;28;20039;-62
2023/06/04 09:58:00;;;;;;;4.68;0.95;;;14.80;99.90;;;;;;5072069;28;20112;-60
2023/06/04 10:00:28;;;;;;;9.35;1.52;;;14.80;99.90;;;;;;5074023;28;20028;-60
2023/06/04 10:03:01;;;;;;;7.88;1.42;;;14.80;99.90;;;;;;5051996;28;20089;-60
2023/06/04 10:05:35;;;;;;;5.72;1.10;;;14.70;99.90;;;;;;5055360;28;20028;-61
2023/06/04 10:08:05;;;;;;;8.52;1.80;;;14.70;99.90;;;;;;5071976;28;20101;-61
2023/06/04 10:10:37;;;;;;;6.88;1.80;;;14.70;99.90;;;;;;5053367;28;20160;-60
2023/06/04 10:13:46;;;;;;;8.43;1.67;;;14.70;99.90;;;;;;5077312;28;20382;-61
2023/06/04 10:16:14;;;;;;;10.02;1.50;;;14.80;99.90;;;;;;5058093;28;20405;-62
2023/06/04 10:18:43;;;;;;;9.45;1.38;;;14.80;99.90;;;;;;5075220;28;20134;-61
2023/06/04 10:21:13;;;;;;;6.72;1.58;;;14.90;99.90;;;;;;5078263;28;20116;-61
2023/06/04 10:23:41;;;;;;;7.20;1.10;;;14.90;99.90;;;;;;5082680;28;20020;-62
2023/06/04 10:26:09;;;;;;;7.10;1.25;;;15.00;99.90;;;;;;5076109;28;20032;-61
2023/06/04 10:28:37;;;;;;;8.15;1.45;;;14.90;99.90;;;;;;5055928;28;20543;-62
2023/06/04 10:31:04;;;;;;;6.53;1.55;;;14.90;99.90;;;;;;5079868;28;20397;-61
2023/06/04 10:33:32;;;;;;;7.43;1.60;;;14.90;99.90;;;;;;5078260;28;20078;-62
2023/06/04 10:36:15;;;;;;;8.30;1.63;;;14.90;99.90;;;;;;5078318;28;20465;-62
2023/06/04 10:38:50;;;;;;;7.13;1.60;;;14.90;99.90;;;;;;5052501;28;20050;-64
2023/06/04 10:41:19;;;;;;;6.70;1.25;;;14.90;99.90;;;;;;5082381;28;20032;-61
2023/06/04 10:43:51;;;;;;;6.38;1.15;;;14.90;99.90;;;;;;5072495;28;20035;-61
2023/06/04 10:46:20;;;;;;;6.85;1.48;;;14.90;99.90;;;;;;5075234;28;20032;-61
2023/06/04 10:48:52;;;;;;;11.27;1.33;;;14.80;99.90;;;;;;5084690;28;20030;-62
2023/06/04 10:51:33;;;;;;;9.80;1.85;;;14.70;99.90;;;;;;5080676;28;20028;-61
2023/06/04 10:54:01;;;;;;;7.07;1.50;;;14.60;99.90;;;;;;5079757;28;20079;-61
2023/06/04 10:56:34;;;;;;;12.07;1.65;;;14.50;99.90;;;;;;5079718;28;20107;-61
2023/06/04 10:59:14;;;;;;;8.75;1.52;;;14.40;99.90;;;;;;5088118;28;20089;-61
2023/06/04 11:01:42;;;;;;;7.78;1.38;;;14.40;99.90;;;;;;5064037;28;20052;-61
2023/06/04 11:04:23;;;;;;;7.68;1.55;;;14.30;99.90;;;;;;5075878;28;20032;-61
2023/06/04 11:07:11;;;;;;;7.32;1.17;;;14.20;99.90;;;;;;5067405;28;20028;-61
2023/06/04 11:09:48;;;;;;;6.43;1.33;;;14.20;99.90;;;;;;5081957;28;20024;-61
2023/06/04 11:12:16;;;;;;;7.47;1.45;;;14.10;99.90;;;;;;5076349;28;20031;-58
2023/06/04 11:14:55;;;;;;;7.90;1.60;;;14.00;99.90;;;;;;5084338;28;20020;-63
2023/06/04 11:17:23;;;;;;;8.65;1.60;;;13.90;99.90;;;;;;5077686;28;20042;-60
2023/06/04 11:19:55;;;;;;;7.32;1.40;;;13.90;99.90;;;;;;5060153;28;20020;-59
2023/06/04 11:22:22;;;;;;;10.00;1.75;;;13.90;99.90;;;;;;5063598;28;20035;-59
2023/06/04 11:24:52;;;;;;;8.05;2.42;;;13.90;99.90;;;;;;5061769;28;20039;-62
2023/06/04 11:27:20;;;;;;;8.75;1.67;;;13.90;99.90;;;;;;5066499;28;20028;-63
2023/06/04 11:29:51;;;;;;;7.13;1.38;;;13.90;99.90;;;;;;5052349;28;20173;-60
2023/06/04 11:32:26;;;;;;;6.90;1.23;;;13.90;99.90;;;;;;5071029;28;20028;-60
2023/06/04 11:35:05;;;;;;;9.77;2.33;;;13.90;99.90;;;;;;5067865;28;20037;-60
2023/06/04 11:37:33;;;;;;;8.70;1.77;;;14.00;99.90;;;;;;5075585;28;20016;-60
2023/06/04 11:40:01;;;;;;;10.20;1.38;;;14.10;99.90;;;;;;5070467;28;20439;-63
2023/06/04 11:42:31;;;;;;;11.40;1.60;;;14.20;99.90;;;;;;5051732;28;20112;-58
2023/06/04 11:44:59;;;;;;;9.40;2.22;;;14.30;99.90;;;;;;5087999;28;20039;-60
2023/06/04 11:47:26;;;;;;;8.60;1.30;;;14.30;99.90;;;;;;5059854;28;20074;-60
2023/06/04 11:49:57;;;;;;;8.18;1.58;;;14.30;99.90;;;;;;5077426;28;20408;-58
2023/06/04 11:52:25;;;;;;;7.10;2.10;;;14.30;99.90;;;;;;5080688;28;20484;-58
2023/06/04 11:54:53;;;;;;;5.28;1.77;;;14.30;99.90;;;;;;5079561;28;20047;-61
2023/06/04 11:57:20;;;;;;;4.97;1.58;;;14.30;99.90;;;;;;5070929;28;20044;-61
2023/06/04 11:59:48;;;;;;;10.82;1.85;;;14.30;99.90;;;;;;5066283;28;20035;-61
2023/06/04 12:02:15;;;;;;;4.47;1.40;;;14.30;99.90;;;;;;5066380;28;20520;-61
2023/06/04 12:04:43;;;;;;;10.02;1.95;;;14.30;99.90;;;;;;5075135;28;20078;-61
2023/06/04 12:07:11;;;;;;;9.75;2.88;;;14.30;99.90;;;;;;5072702;28;20026;-61
2023/06/04 12:09:39;;;;;;;10.80;2.45;;;14.40;99.90;;;;;;5074620;28;20043;-61
2023/06/04 12:12:07;;;;;;;11.82;2.95;;;14.40;99.90;;;;;;5066745;28;20035;-61
2023/06/04 12:14:35;;;;;;;16.10;3.00;;;14.40;99.90;;;;;;5068775;28;20036;-61
2023/06/04 12:17:12;;;;;;;5.70;2.70;;;14.40;99.90;;;;;;5068805;28;20016;-61
2023/06/04 12:19:50;;;;;;;7.45;2.05;;;14.40;99.90;;;;;;5071186;28;20035;-61
2023/06/04 12:22:18;;;;;;;10.52;2.28;;;14.50;99.90;;;;;;5067970;28;20024;-61
2023/06/04 12:24:58;;;;;;;6.95;2.30;;;14.40;99.90;;;;;;5062137;28;20037;-61
2023/06/04 12:27:26;;;;;;;10.93;1.98;;;14.40;99.90;;;;;;5069082;28;20523;-61
2023/06/04 12:30:02;;;;;;;11.63;1.98;;;14.40;99.90;;;;;;5075691;28;20130;-61
2023/06/04 12:32:30;;;;;;;10.70;1.88;;;14.40;99.90;;;;;;5066208;28;20024;-59
2023/06/04 12:34:57;;;;;;;8.95;1.48;;;14.40;99.90;;;;;;5070211;28;20020;-58
2023/06/04 12:37:28;;;;;;;5.85;1.95;;;14.40;99.90;;;;;;5071085;28;20031;-57
2023/06/04 12:39:56;;;;;;;6.38;1.60;;;14.40;99.90;;;;;;5065538;28;20306;-58
2023/06/04 12:42:23;;;;;;;15.13;2.28;;;14.40;99.90;;;;;;5072135;28;20024;-59
2023/06/04 12:44:51;;;;;;;8.48;2.38;;;14.40;99.90;;;;;;5078354;28;20036;-58
2023/06/04 12:47:18;;;;;;;9.20;1.80;;;14.40;99.90;;;;;;5073498;28;20058;-59
2023/06/04 12:49:46;;;;;;;10.95;2.10;;;14.40;99.90;;;;;;5082450;28;20061;-58
2023/06/04 12:52:14;;;;;;;11.48;1.63;;;14.40;99.90;;;;;;5062766;28;20054;-59
2023/06/04 12:54:43;;;;;;;6.60;1.60;;;14.40;99.90;;;;;;5079741;28;20519;-60